Lake Kivu — D5DX4 — position and weather

sailwx.info

Track history (hours):
 
Tides and Currents Weather Stations Pressure Air Temp Water Temp Dewpoint Dewpoint Depression Visibility Wind Speed Wind Dir Waves Ship Positions

Lake Kivu

Last reported at 2018-Feb-20 23:58 UTC. Time now 2018-Feb-21 00:00 UTC.
Position N 51°28' E 003°41'.

Length 183 m; draft 8.7 m.

Type: Cargo ship. MMSI: 635961349.

Date/timePositionNaut miles runAvg speedWind from/ knotsBaromVisibWave heightAir tempDewpointWater temp
2018-Feb-20 23:58N 51°28' E 003°41'0 0.0
2018-Feb-20 23:28N 51°28' E 003°41'0 0.0
2018-Feb-20 22:52N 51°28' E 003°41'0 0.0
2018-Feb-20 22:28N 51°28' E 003°41'0 0.0
2018-Feb-20 21:58N 51°28' E 003°41'0 0.0
2018-Feb-20 21:28N 51°28' E 003°41'0 0.0
2018-Feb-20 20:58N 51°28' E 003°41'0 0.0
2018-Feb-20 20:28N 51°28' E 003°41'0 0.0
2018-Feb-20 19:58N 51°28' E 003°41'0 0.0
2018-Feb-20 19:28N 51°28' E 003°41'0 0.0
2018-Feb-20 18:58N 51°28' E 003°41'0 0.0
2018-Feb-20 18:28N 51°28' E 003°41'0 0.0
2018-Feb-20 17:58N 51°28' E 003°41'0 0.0
2018-Feb-20 17:16N 51°28' E 003°41'0 0.0
2018-Feb-20 16:40N 51°28' E 003°41'0 0.0
2018-Feb-20 16:28N 51°28' E 003°41'0 0.0
2018-Feb-20 15:58N 51°28' E 003°41'0 0.0
2018-Feb-20 15:10N 51°28' E 003°41'0 0.0
2018-Feb-20 14:52N 51°28' E 003°41'0 0.0
2018-Feb-20 14:22N 51°28' E 003°41'0 0.0
2018-Feb-20 13:58N 51°28' E 003°41'0 0.0
2018-Feb-20 13:28N 51°28' E 003°41'0 0.0
2018-Feb-20 12:58N 51°28' E 003°41'0 0.0
2018-Feb-20 12:28N 51°28' E 003°41'0 0.0
2018-Feb-20 11:58N 51°28' E 003°41'0 0.0
2018-Feb-20 11:22N 51°28' E 003°41'0 0.0
2018-Feb-20 10:58N 51°28' E 003°41'0 0.0
2018-Feb-20 10:28N 51°28' E 003°41'0 0.0
2018-Feb-20 09:58N 51°28' E 003°41'0 0.0
2018-Feb-20 09:28N 51°28' E 003°41'0 0.0
2018-Feb-20 08:58N 51°28' E 003°41'0 0.2
2018-Feb-20 08:30N 51°28' E 003°41'3 5.3
2018-Feb-20 08:00N 51°26' E 003°37'612.0
2018-Feb-20 07:30N 51°25' E 003°28'815.1
2018-Feb-20 07:00N 51°25' E 003°16'816.3
2018-Feb-20 06:31N 51°24' E 003°03'917.2
2018-Feb-20 06:00N 51°22' E 002°50'712.9
2018-Feb-20 05:30N 51°22' E 002°39'816.6
2018-Feb-20 05:00N 51°21' E 002°26'1019.6
2018-Feb-20 04:29N 51°16' E 002°12'818.0
2018-Feb-20 04:01N 51°12' E 001°60'510.5
2018-Feb-20 03:30N 51°10' E 001°52'510.0
2018-Feb-20 03:00N 51°07' E 001°46'612.9
2018-Feb-20 02:30N 51°02' E 001°38'918.2
2018-Feb-20 02:00N 50°56' E 001°28'917.2
2018-Feb-20 01:30N 50°48' E 001°24'1016.0
2018-Feb-20 00:53N 50°39' E 001°16'2015.7
2018-Feb-19 23:36N 50°28' E 000°49'216.8
2018-Feb-19 23:30N 50°28' E 000°46'1516.9
2018-Feb-19 22:37N 50°23' E 000°24'317.3
2018-Feb-19 22:25N 50°22' E 000°19'717.2
2018-Feb-19 22:00N 50°20' E 000°08'816.9
2018-Feb-19 21:30N 50°18' W 000°04'816.6
2018-Feb-19 21:00N 50°16' W 000°17'816.5
2018-Feb-19 20:30N 50°14' W 000°30'816.1
2018-Feb-19 20:00N 50°12' W 000°42'815.8
2018-Feb-19 19:30N 50°10' W 000°54'815.1
2018-Feb-19 19:00N 50°08' W 001°05'714.3
2018-Feb-19 18:30N 50°06' W 001°16'713.5
2018-Feb-19 18:00N 50°04' W 001°26'612.9
2018-Feb-19 17:30N 50°03' W 001°36'612.3
2018-Feb-19 17:00N 50°01' W 001°45'611.8
2018-Feb-19 16:30N 49°60' W 001°54'611.3
2018-Feb-19 16:01N 49°58' W 002°02'611.2
2018-Feb-19 15:30N 49°57' W 002°11'1212.3
2018-Feb-19 14:32N 49°54' W 002°29'013.2
2018-Feb-19 14:30N 49°54' W 002°29'813.6
2018-Feb-19 13:55N 49°52' W 002°41'614.1
2018-Feb-19 13:30N 49°50' W 002°50'814.2
2018-Feb-19 12:59N 49°49' W 003°01'714.8
2018-Feb-19 12:30N 49°49' W 003°12'714.8
2018-Feb-19 12:00N 49°49' W 003°24'715.1
2018-Feb-19 11:30N 49°50' W 003°35'815.3
2018-Feb-19 11:00N 49°50' W 003°47'1515.5
2018-Feb-19 10:01N 49°51' W 004°11'016.7
2018-Feb-19 10:01N 49°51' W 004°11'815.6
2018-Feb-19 09:30N 49°50' W 004°23'816.0
2018-Feb-19 08:59N 49°50' W 004°36'816.2
2018-Feb-19 08:30N 49°51' W 004°48'1016.6
2018-Feb-19 07:52N 49°51' W 005°05'617.1
2018-Feb-19 07:30N 49°52' W 005°15'913.4
2018-Feb-19 06:47N 49°53' W 005°29'412.5
2018-Feb-19 06:28N 49°53' W 005°35'916.2
2018-Feb-19 05:54N 49°54' W 005°49'814.5
2018-Feb-19 05:21N 49°58' W 006°00'715.3
2018-Feb-19 04:54N 50°05' W 006°01'615.2
2018-Feb-19 04:30N 50°11' W 006°01'815.5
2018-Feb-19 04:00N 50°19' W 006°01'713.4
2018-Feb-19 03:30N 50°23' W 005°54'714.5
2018-Feb-19 03:00N 50°26' W 005°43'714.8
2018-Feb-19 02:30N 50°29' W 005°33'815.9
2018-Feb-19 02:00N 50°35' W 005°25'816.2
2018-Feb-19 01:30N 50°42' W 005°18'816.4
2018-Feb-19 01:00N 50°49' W 005°11'816.5
2018-Feb-19 00:30N 50°56' W 005°04'816.8
2018-Feb-19 00:00N 51°02' W 004°56'917.0
2018-Feb-18 23:30N 51°10' W 004°48'816.7
2018-Feb-18 23:00N 51°16' W 004°39'917.7
2018-Feb-18 22:30N 51°17' W 004°25'918.2
2018-Feb-18 22:00N 51°17' W 004°11'917.9
2018-Feb-18 21:30N 51°18' W 003°57'917.2
2018-Feb-18 20:59N 51°19' W 003°42'915.9
2018-Feb-18 20:27N 51°21' W 003°29'714.9
2018-Feb-18 20:00N 51°21' W 003°18'611.9
2018-Feb-18 19:30N 51°22' W 003°09'612.9
2018-Feb-18 19:00N 51°26' W 003°01'713.1
2018-Feb-18 18:31N 51°28' W 002°52'510.2
2018-Feb-18 18:00N 51°30' W 002°44'0 0.4
2018-Feb-18 17:30N 51°30' W 002°43'0 0.8
2018-Feb-18 17:00N 51°30' W 002°43'0 0.0
2018-Feb-18 16:30N 51°30' W 002°43'0 0.0
2018-Feb-18 16:00N 51°30' W 002°43'0 0.0
2018-Feb-18 15:30N 51°30' W 002°43'0 0.0
2018-Feb-18 15:00N 51°30' W 002°43'0 0.0
2018-Feb-18 14:30N 51°30' W 002°43'0 0.0
2018-Feb-18 14:00N 51°30' W 002°43'0 0.0
2018-Feb-18 13:30N 51°30' W 002°43'0 0.0
2018-Feb-18 13:00N 51°30' W 002°43'0 0.0
2018-Feb-18 12:30N 51°30' W 002°43'0 0.0
2018-Feb-18 12:00N 51°30' W 002°43'0 0.0
2018-Feb-18 11:30N 51°30' W 002°43'0 0.0
2018-Feb-18 11:00N 51°30' W 002°43'0 0.0
2018-Feb-18 10:30N 51°30' W 002°43'0 0.0
2018-Feb-18 10:00N 51°30' W 002°43'0 0.0
2018-Feb-18 09:30N 51°30' W 002°43'0 0.0
2018-Feb-18 09:00N 51°30' W 002°43'0 0.0
2018-Feb-18 08:30N 51°30' W 002°43'0 0.0
2018-Feb-18 08:00N 51°30' W 002°43'0 0.0
2018-Feb-18 07:30N 51°30' W 002°43'0 0.0
2018-Feb-18 07:00N 51°30' W 002°43'0 0.0
2018-Feb-18 06:30N 51°30' W 002°43'0 0.0
2018-Feb-18 06:00N 51°30' W 002°43'0 0.0
2018-Feb-18 05:30N 51°30' W 002°43'0 0.0
2018-Feb-18 05:00N 51°30' W 002°43'0 0.0
2018-Feb-18 04:30N 51°30' W 002°43'0 0.0
2018-Feb-18 04:00N 51°30' W 002°43'0 0.0
2018-Feb-18 03:30N 51°30' W 002°43'0 0.0
2018-Feb-18 03:00N 51°30' W 002°43'0 0.0
2018-Feb-18 02:30N 51°30' W 002°43'0 0.0
2018-Feb-18 02:00N 51°30' W 002°43'0 0.0
2018-Feb-18 01:30N 51°30' W 002°43'0 0.0
2018-Feb-18 01:00N 51°30' W 002°43'0 0.0
2018-Feb-18 00:30N 51°30' W 002°43'0 0.0
2018-Feb-18 00:00N 51°30' W 002°43'0 0.0
2018-Feb-17 23:30N 51°30' W 002°43'0 0.0
2018-Feb-17 23:00N 51°30' W 002°43'0 0.0
2018-Feb-17 22:30N 51°30' W 002°43'0 0.2
2018-Feb-17 22:00N 51°30' W 002°43'0 0.6
2018-Feb-17 21:28N 51°30' W 002°43'1 1.9
2018-Feb-17 21:00N 51°30' W 002°45'611.7
2018-Feb-17 20:30N 51°28' W 002°53'714.3
2018-Feb-17 20:00N 51°24' W 003°03'714.3
2018-Feb-17 19:31N 51°21' W 003°14'612.3
2018-Feb-17 18:59N 51°21' W 003°24'713.0
2018-Feb-17 18:26N 51°20' W 003°35'613.4
2018-Feb-17 17:58N 51°19' W 003°45'4 1.9
2018-Feb-17 15:49N 51°18' W 003°52'617.5
2018-Feb-17 15:29N 51°18' W 004°01'916.9
2018-Feb-17 14:59N 51°17' W 004°14'815.8
2018-Feb-17 14:30N 51°16' W 004°26'815.2
2018-Feb-17 14:00N 51°15' W 004°38'714.4
2018-Feb-17 13:30N 51°11' W 004°47'714.2
2018-Feb-17 13:00N 51°06' W 004°55'714.0
2018-Feb-17 12:30N 51°01' W 005°03'714.0
2018-Feb-17 12:00N 50°56' W 005°11'713.9
2018-Feb-17 11:30N 50°51' W 005°19'713.8
2018-Feb-17 11:00N 50°46' W 005°26'713.5
2018-Feb-17 10:30N 50°41' W 005°34'5 9.7
2018-Feb-17 10:00N 50°37' W 005°39'1 1.6
2018-Feb-17 09:30N 50°37' W 005°38'612.6
2018-Feb-17 09:00N 50°31' W 005°40'815.1
2018-Feb-17 08:30N 50°24' W 005°46'815.3
2018-Feb-17 08:00N 50°19' W 005°54'815.1
2018-Feb-17 07:30N 50°11' W 005°55'815.1
2018-Feb-17 06:58N 50°03' W 005°54'63815.7
2018-Feb-15 14:24N 39°47' W 009°51'716.7
2018-Feb-15 13:58N 39°40' W 009°52'816.7
2018-Feb-15 13:31N 39°32' W 009°51'816.5
2018-Feb-15 13:00N 39°24' W 009°51'917.1
2018-Feb-15 12:31N 39°16' W 009°51'816.9
2018-Feb-15 12:00N 39°07' W 009°51'816.8
2018-Feb-15 11:30N 38°59' W 009°51'917.3
2018-Feb-15 11:01N 38°50' W 009°52'816.6
2018-Feb-15 10:30N 38°42' W 009°51'917.0
2018-Feb-15 10:00N 38°34' W 009°49'816.5
2018-Feb-15 09:30N 38°25' W 009°47'816.3
2018-Feb-15 09:00N 38°17' W 009°44'816.1
2018-Feb-15 08:30N 38°10' W 009°40'816.4
2018-Feb-15 08:00N 38°02' W 009°37'816.4
2018-Feb-15 07:30N 37°54' W 009°35'816.5
2018-Feb-15 07:00N 37°46' W 009°34'816.1
2018-Feb-15 06:30N 37°38' W 009°32'1116.0
2018-Feb-15 05:50N 37°28' W 009°29'5414.6
2018-Feb-15 02:05N 36°42' W 008°53'217.1
2018-Feb-15 01:57N 36°41' W 008°50'16316.7
2018-Feb-14 16:14N 35°58' W 005°35'415.7
2018-Feb-14 15:59N 35°59' W 005°31'715.2
2018-Feb-14 15:30N 36°01' W 005°22'815.3
2018-Feb-14 15:00N 36°03' W 005°13'21015.1
2018-Feb-14 01:08N 37°12' W 001°06'216.5
2018-Feb-14 01:00N 37°13' W 001°04'816.5
2018-Feb-14 00:30N 37°19' W 000°56'816.4
2018-Feb-14 00:00N 37°24' W 000°48'816.4
2018-Feb-13 23:30N 37°29' W 000°41'816.0
2018-Feb-13 23:00N 37°35' W 000°33'815.7
2018-Feb-13 22:30N 37°41' W 000°28'1415.7
2018-Feb-13 21:36N 37°53' W 000°18'215.5
2018-Feb-13 21:30N 37°54' W 000°17'815.7
2018-Feb-13 21:00N 38°01' W 000°11'815.8
2018-Feb-13 20:30N 38°08' W 000°06'7713.9
2018-Feb-13 14:58N 39°24' W 000°02'715.6
2018-Feb-13 14:30N 39°31' W 000°06'714.6
2018-Feb-13 14:01N 39°37' W 000°11'2 2.1
2018-Feb-13 13:01N 39°38' W 000°13'0 0.0
2018-Feb-13 12:55N 39°38' W 000°13'0 0.0
2018-Feb-13 12:28N 39°38' W 000°13'0 0.0
2018-Feb-13 11:55N 39°38' W 000°13'0 0.0
2018-Feb-13 11:22N 39°38' W 000°13'0 0.0
2018-Feb-13 10:55N 39°38' W 000°13'0 0.0
2018-Feb-13 10:25N 39°38' W 000°13'0 0.0
2018-Feb-13 09:58N 39°38' W 000°13'0 0.0
2018-Feb-13 09:25N 39°38' W 000°13'0 0.0
2018-Feb-13 08:49N 39°38' W 000°13'0 0.0
2018-Feb-13 08:25N 39°38' W 000°13'0 0.0
2018-Feb-13 07:40N 39°38' W 000°13'0 0.0
2018-Feb-13 07:25N 39°38' W 000°13'0 0.0
2018-Feb-13 06:52N 39°38' W 000°13'0 0.0
2018-Feb-13 06:22N 39°38' W 000°13'0 0.0
2018-Feb-13 05:55N 39°38' W 000°13'0 0.0
2018-Feb-13 05:28N 39°38' W 000°13'0 0.0
2018-Feb-13 04:58N 39°38' W 000°13'0 0.0
2018-Feb-13 04:28N 39°38' W 000°13'0 0.0
2018-Feb-13 03:58N 39°38' W 000°13'0 0.0
2018-Feb-13 03:28N 39°38' W 000°13'0 0.0
2018-Feb-13 02:58N 39°38' W 000°13'0 0.0
2018-Feb-13 02:28N 39°38' W 000°13'0 0.0
2018-Feb-13 01:58N 39°38' W 000°13'0 0.0
2018-Feb-13 01:28N 39°38' W 000°13'0 0.0
2018-Feb-13 00:58N 39°38' W 000°13'1 1.2
2018-Feb-13 00:28N 39°38' W 000°13'3 5.7
2018-Feb-13 00:00N 39°37' W 000°10'11815.3
2018-Feb-12 16:19N 40°52' E 001°49'516.7
2018-Feb-12 16:00N 40°56' E 001°54'816.8
2018-Feb-12 15:30N 41°03' E 001°60'917.1
2018-Feb-12 15:00N 41°10' E 002°07'815.4
2018-Feb-12 14:30N 41°17' E 002°11'4 8.3
2018-Feb-12 14:00N 41°21' E 002°10'1 2.0
2018-Feb-12 13:28N 41°20' E 002°09'0 0.0
2018-Feb-12 12:58N 41°20' E 002°09'0 0.0
2018-Feb-12 12:28N 41°20' E 002°09'0 0.0
2018-Feb-12 11:58N 41°20' E 002°09'0 0.0
2018-Feb-12 11:28N 41°20' E 002°09'0 0.0
2018-Feb-12 10:58N 41°20' E 002°09'0 0.0
2018-Feb-12 10:28N 41°20' E 002°09'0 0.0
2018-Feb-12 09:58N 41°20' E 002°09'0 0.0
2018-Feb-12 09:28N 41°20' E 002°09'0 0.0
2018-Feb-12 08:58N 41°20' E 002°09'0 0.0
2018-Feb-12 08:28N 41°20' E 002°09'0 0.0
2018-Feb-12 07:58N 41°20' E 002°09'0 0.0
2018-Feb-12 07:28N 41°20' E 002°09'0 0.0
2018-Feb-12 06:58N 41°20' E 002°09'0 0.0
2018-Feb-12 06:28N 41°20' E 002°09'0 0.0
2018-Feb-12 05:58N 41°20' E 002°09'0 0.0
2018-Feb-12 05:28N 41°20' E 002°09'0 0.0
2018-Feb-12 04:58N 41°20' E 002°09'0 0.0
2018-Feb-12 04:28N 41°20' E 002°09'0 0.0
2018-Feb-12 03:58N 41°20' E 002°09'0 0.0
2018-Feb-12 03:28N 41°20' E 002°09'0 0.0
2018-Feb-12 02:58N 41°20' E 002°09'0 0.0
2018-Feb-12 02:28N 41°20' E 002°09'0 0.0
2018-Feb-12 01:58N 41°20' E 002°09'0 0.0
2018-Feb-12 01:28N 41°20' E 002°09'0 0.0
2018-Feb-12 00:58N 41°20' E 002°09'0 0.0
2018-Feb-12 00:28N 41°20' E 002°09'1 2.5
2018-Feb-12 00:00N 41°21' E 002°10'4 7.5
2018-Feb-11 23:30N 41°17' E 002°12'3 5.7
2018-Feb-11 23:00N 41°15' E 002°14'3 6.5
2018-Feb-11 22:31N 41°16' E 002°19'713.7
2018-Feb-11 22:00N 41°19' E 002°27'611.8
2018-Feb-11 21:30N 41°21' E 002°34'0 0.3
2018-Feb-11 21:01N 41°21' E 002°34'0 0.9
2018-Feb-11 20:31N 41°21' E 002°34'1 1.0
2018-Feb-11 20:01N 41°20' E 002°33'0 1.0
2018-Feb-11 19:30N 41°20' E 002°33'1 1.1
2018-Feb-11 19:01N 41°19' E 002°32'1 1.4
2018-Feb-11 18:31N 41°19' E 002°32'1 1.6
2018-Feb-11 18:01N 41°18' E 002°32'1 1.6
2018-Feb-11 17:30N 41°17' E 002°31'1 1.6
2018-Feb-11 17:01N 41°16' E 002°31'1 1.5
2018-Feb-11 16:31N 41°16' E 002°30'1 1.5
2018-Feb-11 16:01N 41°15' E 002°30'1 1.5
2018-Feb-11 15:31N 41°14' E 002°30'1 1.4
2018-Feb-11 15:00N 41°14' E 002°29'1 1.4
2018-Feb-11 14:31N 41°13' E 002°29'1 1.3
2018-Feb-11 14:01N 41°13' E 002°28'1 1.2
2018-Feb-11 13:30N 41°12' E 002°28'1 1.1
2018-Feb-11 13:01N 41°12' E 002°28'1 1.1
2018-Feb-11 12:30N 41°11' E 002°27'0 1.0
2018-Feb-11 12:00N 41°11' E 002°27'0 0.7
2018-Feb-11 11:30N 41°10' E 002°26'0 0.7
2018-Feb-11 11:00N 41°11' E 002°26'0 0.6
2018-Feb-11 10:30N 41°11' E 002°26'0 0.7
2018-Feb-11 10:01N 41°11' E 002°26'1 1.1
2018-Feb-11 09:30N 41°12' E 002°26'1 2.5
2018-Feb-11 09:01N 41°12' E 002°28'510.9
2018-Feb-11 08:31N 41°09' E 002°34'1 1.9
2018-Feb-11 07:48N 41°08' E 002°35'0 0.7
2018-Feb-11 07:30N 41°09' E 002°35'0 0.7
2018-Feb-11 07:00N 41°09' E 002°35'0 0.6
2018-Feb-11 06:29N 41°09' E 002°34'0 0.6
2018-Feb-11 06:00N 41°09' E 002°34'0 0.8
2018-Feb-11 05:30N 41°08' E 002°34'  
Track history (hours):
 
Tides and Currents Weather Stations Pressure Air Temp Water Temp Dewpoint Dewpoint Depression Visibility Wind Speed Wind Dir Waves Ship Positions

Lake Kivu

Last reported at 2018-Feb-20 23:58 UTC. Time now 2018-Feb-21 00:00 UTC.
Position N 51°28' E 003°41'.

Length 183 m; draft 8.7 m.

Type: Cargo ship. MMSI: 635961349.

Date/timePositionNaut miles runAvg speedWind from/ knotsBaromVisibWave heightAir tempDewpointWater temp
2018-Feb-20 23:58N 51°28' E 003°41'0 0.0
2018-Feb-20 23:28N 51°28' E 003°41'0 0.0
2018-Feb-20 22:52N 51°28' E 003°41'0 0.0
2018-Feb-20 22:28N 51°28' E 003°41'0 0.0
2018-Feb-20 21:58N 51°28' E 003°41'0 0.0
2018-Feb-20 21:28N 51°28' E 003°41'0 0.0
2018-Feb-20 20:58N 51°28' E 003°41'0 0.0
2018-Feb-20 20:28N 51°28' E 003°41'0 0.0
2018-Feb-20 19:58N 51°28' E 003°41'0 0.0
2018-Feb-20 19:28N 51°28' E 003°41'0 0.0
2018-Feb-20 18:58N 51°28' E 003°41'0 0.0
2018-Feb-20 18:28N 51°28' E 003°41'0 0.0
2018-Feb-20 17:58N 51°28' E 003°41'0 0.0
2018-Feb-20 17:16N 51°28' E 003°41'0 0.0
2018-Feb-20 16:40N 51°28' E 003°41'0 0.0
2018-Feb-20 16:28N 51°28' E 003°41'0 0.0
2018-Feb-20 15:58N 51°28' E 003°41'0 0.0
2018-Feb-20 15:10N 51°28' E 003°41'0 0.0
2018-Feb-20 14:52N 51°28' E 003°41'0 0.0
2018-Feb-20 14:22N 51°28' E 003°41'0 0.0
2018-Feb-20 13:58N 51°28' E 003°41'0 0.0
2018-Feb-20 13:28N 51°28' E 003°41'0 0.0
2018-Feb-20 12:58N 51°28' E 003°41'0 0.0
2018-Feb-20 12:28N 51°28' E 003°41'0 0.0
2018-Feb-20 11:58N 51°28' E 003°41'0 0.0
2018-Feb-20 11:22N 51°28' E 003°41'0 0.0
2018-Feb-20 10:58N 51°28' E 003°41'0 0.0
2018-Feb-20 10:28N 51°28' E 003°41'0 0.0
2018-Feb-20 09:58N 51°28' E 003°41'0 0.0
2018-Feb-20 09:28N 51°28' E 003°41'0 0.0
2018-Feb-20 08:58N 51°28' E 003°41'0 0.2
2018-Feb-20 08:30N 51°28' E 003°41'3 5.3
2018-Feb-20 08:00N 51°26' E 003°37'612.0
2018-Feb-20 07:30N 51°25' E 003°28'815.1
2018-Feb-20 07:00N 51°25' E 003°16'816.3
2018-Feb-20 06:31N 51°24' E 003°03'917.2
2018-Feb-20 06:00N 51°22' E 002°50'712.9
2018-Feb-20 05:30N 51°22' E 002°39'816.6
2018-Feb-20 05:00N 51°21' E 002°26'1019.6
2018-Feb-20 04:29N 51°16' E 002°12'818.0
2018-Feb-20 04:01N 51°12' E 001°60'510.5
2018-Feb-20 03:30N 51°10' E 001°52'510.0
2018-Feb-20 03:00N 51°07' E 001°46'612.9
2018-Feb-20 02:30N 51°02' E 001°38'918.2
2018-Feb-20 02:00N 50°56' E 001°28'917.2
2018-Feb-20 01:30N 50°48' E 001°24'1016.0
2018-Feb-20 00:53N 50°39' E 001°16'2015.7
2018-Feb-19 23:36N 50°28' E 000°49'216.8
2018-Feb-19 23:30N 50°28' E 000°46'1516.9
2018-Feb-19 22:37N 50°23' E 000°24'317.3
2018-Feb-19 22:25N 50°22' E 000°19'717.2
2018-Feb-19 22:00N 50°20' E 000°08'816.9
2018-Feb-19 21:30N 50°18' W 000°04'816.6
2018-Feb-19 21:00N 50°16' W 000°17'816.5
2018-Feb-19 20:30N 50°14' W 000°30'816.1
2018-Feb-19 20:00N 50°12' W 000°42'815.8
2018-Feb-19 19:30N 50°10' W 000°54'815.1
2018-Feb-19 19:00N 50°08' W 001°05'714.3
2018-Feb-19 18:30N 50°06' W 001°16'713.5
2018-Feb-19 18:00N 50°04' W 001°26'612.9
2018-Feb-19 17:30N 50°03' W 001°36'612.3
2018-Feb-19 17:00N 50°01' W 001°45'611.8
2018-Feb-19 16:30N 49°60' W 001°54'611.3
2018-Feb-19 16:01N 49°58' W 002°02'611.2
2018-Feb-19 15:30N 49°57' W 002°11'1212.3
2018-Feb-19 14:32N 49°54' W 002°29'013.2
2018-Feb-19 14:30N 49°54' W 002°29'813.6
2018-Feb-19 13:55N 49°52' W 002°41'614.1
2018-Feb-19 13:30N 49°50' W 002°50'814.2
2018-Feb-19 12:59N 49°49' W 003°01'714.8
2018-Feb-19 12:30N 49°49' W 003°12'714.8
2018-Feb-19 12:00N 49°49' W 003°24'715.1
2018-Feb-19 11:30N 49°50' W 003°35'815.3
2018-Feb-19 11:00N 49°50' W 003°47'1515.5
2018-Feb-19 10:01N 49°51' W 004°11'016.7
2018-Feb-19 10:01N 49°51' W 004°11'815.6
2018-Feb-19 09:30N 49°50' W 004°23'816.0
2018-Feb-19 08:59N 49°50' W 004°36'816.2
2018-Feb-19 08:30N 49°51' W 004°48'1016.6
2018-Feb-19 07:52N 49°51' W 005°05'617.1
2018-Feb-19 07:30N 49°52' W 005°15'913.4
2018-Feb-19 06:47N 49°53' W 005°29'412.5
2018-Feb-19 06:28N 49°53' W 005°35'916.2
2018-Feb-19 05:54N 49°54' W 005°49'814.5
2018-Feb-19 05:21N 49°58' W 006°00'715.3
2018-Feb-19 04:54N 50°05' W 006°01'615.2
2018-Feb-19 04:30N 50°11' W 006°01'815.5
2018-Feb-19 04:00N 50°19' W 006°01'713.4
2018-Feb-19 03:30N 50°23' W 005°54'714.5
2018-Feb-19 03:00N 50°26' W 005°43'714.8
2018-Feb-19 02:30N 50°29' W 005°33'815.9
2018-Feb-19 02:00N 50°35' W 005°25'816.2
2018-Feb-19 01:30N 50°42' W 005°18'816.4
2018-Feb-19 01:00N 50°49' W 005°11'816.5
2018-Feb-19 00:30N 50°56' W 005°04'816.8
2018-Feb-19 00:00N 51°02' W 004°56'917.0
2018-Feb-18 23:30N 51°10' W 004°48'816.7
2018-Feb-18 23:00N 51°16' W 004°39'917.7
2018-Feb-18 22:30N 51°17' W 004°25'918.2
2018-Feb-18 22:00N 51°17' W 004°11'917.9
2018-Feb-18 21:30N 51°18' W 003°57'917.2
2018-Feb-18 20:59N 51°19' W 003°42'915.9
2018-Feb-18 20:27N 51°21' W 003°29'714.9
2018-Feb-18 20:00N 51°21' W 003°18'611.9
2018-Feb-18 19:30N 51°22' W 003°09'612.9
2018-Feb-18 19:00N 51°26' W 003°01'713.1
2018-Feb-18 18:31N 51°28' W 002°52'510.2
2018-Feb-18 18:00N 51°30' W 002°44'0 0.4
2018-Feb-18 17:30N 51°30' W 002°43'0 0.8
2018-Feb-18 17:00N 51°30' W 002°43'0 0.0
2018-Feb-18 16:30N 51°30' W 002°43'0 0.0
2018-Feb-18 16:00N 51°30' W 002°43'0 0.0
2018-Feb-18 15:30N 51°30' W 002°43'0 0.0
2018-Feb-18 15:00N 51°30' W 002°43'0 0.0
2018-Feb-18 14:30N 51°30' W 002°43'0 0.0
2018-Feb-18 14:00N 51°30' W 002°43'0 0.0
2018-Feb-18 13:30N 51°30' W 002°43'0 0.0
2018-Feb-18 13:00N 51°30' W 002°43'0 0.0
2018-Feb-18 12:30N 51°30' W 002°43'0 0.0
2018-Feb-18 12:00N 51°30' W 002°43'0 0.0
2018-Feb-18 11:30N 51°30' W 002°43'0 0.0
2018-Feb-18 11:00N 51°30' W 002°43'0 0.0
2018-Feb-18 10:30N 51°30' W 002°43'0 0.0
2018-Feb-18 10:00N 51°30' W 002°43'0 0.0
2018-Feb-18 09:30N 51°30' W 002°43'0 0.0
2018-Feb-18 09:00N 51°30' W 002°43'0 0.0
2018-Feb-18 08:30N 51°30' W 002°43'0 0.0
2018-Feb-18 08:00N 51°30' W 002°43'0 0.0
2018-Feb-18 07:30N 51°30' W 002°43'0 0.0
2018-Feb-18 07:00N 51°30' W 002°43'0 0.0
2018-Feb-18 06:30N 51°30' W 002°43'0 0.0
2018-Feb-18 06:00N 51°30' W 002°43'0 0.0
2018-Feb-18 05:30N 51°30' W 002°43'0 0.0
2018-Feb-18 05:00N 51°30' W 002°43'0 0.0
2018-Feb-18 04:30N 51°30' W 002°43'0 0.0
2018-Feb-18 04:00N 51°30' W 002°43'0 0.0
2018-Feb-18 03:30N 51°30' W 002°43'0 0.0
2018-Feb-18 03:00N 51°30' W 002°43'0 0.0
2018-Feb-18 02:30N 51°30' W 002°43'0 0.0
2018-Feb-18 02:00N 51°30' W 002°43'0 0.0
2018-Feb-18 01:30N 51°30' W 002°43'0 0.0
2018-Feb-18 01:00N 51°30' W 002°43'0 0.0
2018-Feb-18 00:30N 51°30' W 002°43'0 0.0
2018-Feb-18 00:00N 51°30' W 002°43'0 0.0
2018-Feb-17 23:30N 51°30' W 002°43'0 0.0
2018-Feb-17 23:00N 51°30' W 002°43'0 0.0
2018-Feb-17 22:30N 51°30' W 002°43'0 0.2
2018-Feb-17 22:00N 51°30' W 002°43'0 0.6
2018-Feb-17 21:28N 51°30' W 002°43'1 1.9
2018-Feb-17 21:00N 51°30' W 002°45'611.7
2018-Feb-17 20:30N 51°28' W 002°53'714.3
2018-Feb-17 20:00N 51°24' W 003°03'714.3
2018-Feb-17 19:31N 51°21' W 003°14'612.3
2018-Feb-17 18:59N 51°21' W 003°24'713.0
2018-Feb-17 18:26N 51°20' W 003°35'613.4
2018-Feb-17 17:58N 51°19' W 003°45'4 1.9
2018-Feb-17 15:49N 51°18' W 003°52'617.5
2018-Feb-17 15:29N 51°18' W 004°01'916.9
2018-Feb-17 14:59N 51°17' W 004°14'815.8
2018-Feb-17 14:30N 51°16' W 004°26'815.2
2018-Feb-17 14:00N 51°15' W 004°38'714.4
2018-Feb-17 13:30N 51°11' W 004°47'714.2
2018-Feb-17 13:00N 51°06' W 004°55'714.0
2018-Feb-17 12:30N 51°01' W 005°03'714.0
2018-Feb-17 12:00N 50°56' W 005°11'713.9
2018-Feb-17 11:30N 50°51' W 005°19'713.8
2018-Feb-17 11:00N 50°46' W 005°26'713.5
2018-Feb-17 10:30N 50°41' W 005°34'5 9.7
2018-Feb-17 10:00N 50°37' W 005°39'1 1.6
2018-Feb-17 09:30N 50°37' W 005°38'612.6
2018-Feb-17 09:00N 50°31' W 005°40'815.1
2018-Feb-17 08:30N 50°24' W 005°46'815.3
2018-Feb-17 08:00N 50°19' W 005°54'815.1
2018-Feb-17 07:30N 50°11' W 005°55'815.1
2018-Feb-17 06:58N 50°03' W 005°54'63815.7
2018-Feb-15 14:24N 39°47' W 009°51'716.7
2018-Feb-15 13:58N 39°40' W 009°52'816.7
2018-Feb-15 13:31N 39°32' W 009°51'816.5
2018-Feb-15 13:00N 39°24' W 009°51'917.1
2018-Feb-15 12:31N 39°16' W 009°51'816.9
2018-Feb-15 12:00N 39°07' W 009°51'816.8
2018-Feb-15 11:30N 38°59' W 009°51'917.3
2018-Feb-15 11:01N 38°50' W 009°52'816.6
2018-Feb-15 10:30N 38°42' W 009°51'917.0
2018-Feb-15 10:00N 38°34' W 009°49'816.5
2018-Feb-15 09:30N 38°25' W 009°47'816.3
2018-Feb-15 09:00N 38°17' W 009°44'816.1
2018-Feb-15 08:30N 38°10' W 009°40'816.4
2018-Feb-15 08:00N 38°02' W 009°37'816.4
2018-Feb-15 07:30N 37°54' W 009°35'816.5
2018-Feb-15 07:00N 37°46' W 009°34'816.1
2018-Feb-15 06:30N 37°38' W 009°32'1116.0
2018-Feb-15 05:50N 37°28' W 009°29'5414.6
2018-Feb-15 02:05N 36°42' W 008°53'217.1
2018-Feb-15 01:57N 36°41' W 008°50'16316.7
2018-Feb-14 16:14N 35°58' W 005°35'415.7
2018-Feb-14 15:59N 35°59' W 005°31'715.2
2018-Feb-14 15:30N 36°01' W 005°22'815.3
2018-Feb-14 15:00N 36°03' W 005°13'21015.1
2018-Feb-14 01:08N 37°12' W 001°06'216.5
2018-Feb-14 01:00N 37°13' W 001°04'816.5
2018-Feb-14 00:30N 37°19' W 000°56'816.4
2018-Feb-14 00:00N 37°24' W 000°48'816.4
2018-Feb-13 23:30N 37°29' W 000°41'816.0
2018-Feb-13 23:00N 37°35' W 000°33'815.7
2018-Feb-13 22:30N 37°41' W 000°28'1415.7
2018-Feb-13 21:36N 37°53' W 000°18'215.5
2018-Feb-13 21:30N 37°54' W 000°17'815.7
2018-Feb-13 21:00N 38°01' W 000°11'815.8
2018-Feb-13 20:30N 38°08' W 000°06'7713.9
2018-Feb-13 14:58N 39°24' W 000°02'715.6
2018-Feb-13 14:30N 39°31' W 000°06'714.6
2018-Feb-13 14:01N 39°37' W 000°11'2 2.1
2018-Feb-13 13:01N 39°38' W 000°13'0 0.0
2018-Feb-13 12:55N 39°38' W 000°13'0 0.0
2018-Feb-13 12:28N 39°38' W 000°13'0 0.0
2018-Feb-13 11:55N 39°38' W 000°13'0 0.0
2018-Feb-13 11:22N 39°38' W 000°13'0 0.0
2018-Feb-13 10:55N 39°38' W 000°13'0 0.0
2018-Feb-13 10:25N 39°38' W 000°13'0 0.0
2018-Feb-13 09:58N 39°38' W 000°13'0 0.0
2018-Feb-13 09:25N 39°38' W 000°13'0 0.0
2018-Feb-13 08:49N 39°38' W 000°13'0 0.0
2018-Feb-13 08:25N 39°38' W 000°13'0 0.0
2018-Feb-13 07:40N 39°38' W 000°13'0 0.0
2018-Feb-13 07:25N 39°38' W 000°13'0 0.0
2018-Feb-13 06:52N 39°38' W 000°13'0 0.0
2018-Feb-13 06:22N 39°38' W 000°13'0 0.0
2018-Feb-13 05:55N 39°38' W 000°13'0 0.0
2018-Feb-13 05:28N 39°38' W 000°13'0 0.0
2018-Feb-13 04:58N 39°38' W 000°13'0 0.0
2018-Feb-13 04:28N 39°38' W 000°13'0 0.0
2018-Feb-13 03:58N 39°38' W 000°13'0 0.0
2018-Feb-13 03:28N 39°38' W 000°13'0 0.0
2018-Feb-13 02:58N 39°38' W 000°13'0 0.0
2018-Feb-13 02:28N 39°38' W 000°13'0 0.0
2018-Feb-13 01:58N 39°38' W 000°13'0 0.0
2018-Feb-13 01:28N 39°38' W 000°13'0 0.0
2018-Feb-13 00:58N 39°38' W 000°13'1 1.2
2018-Feb-13 00:28N 39°38' W 000°13'3 5.7
2018-Feb-13 00:00N 39°37' W 000°10'11815.3
2018-Feb-12 16:19N 40°52' E 001°49'516.7
2018-Feb-12 16:00N 40°56' E 001°54'816.8
2018-Feb-12 15:30N 41°03' E 001°60'917.1
2018-Feb-12 15:00N 41°10' E 002°07'815.4
2018-Feb-12 14:30N 41°17' E 002°11'4 8.3
2018-Feb-12 14:00N 41°21' E 002°10'1 2.0
2018-Feb-12 13:28N 41°20' E 002°09'0 0.0
2018-Feb-12 12:58N 41°20' E 002°09'0 0.0
2018-Feb-12 12:28N 41°20' E 002°09'0 0.0
2018-Feb-12 11:58N 41°20' E 002°09'0 0.0
2018-Feb-12 11:28N 41°20' E 002°09'0 0.0
2018-Feb-12 10:58N 41°20' E 002°09'0 0.0
2018-Feb-12 10:28N 41°20' E 002°09'0 0.0
2018-Feb-12 09:58N 41°20' E 002°09'0 0.0
2018-Feb-12 09:28N 41°20' E 002°09'0 0.0
2018-Feb-12 08:58N 41°20' E 002°09'0 0.0
2018-Feb-12 08:28N 41°20' E 002°09'0 0.0
2018-Feb-12 07:58N 41°20' E 002°09'0 0.0
2018-Feb-12 07:28N 41°20' E 002°09'0 0.0
2018-Feb-12 06:58N 41°20' E 002°09'0 0.0
2018-Feb-12 06:28N 41°20' E 002°09'0 0.0
2018-Feb-12 05:58N 41°20' E 002°09'0 0.0
2018-Feb-12 05:28N 41°20' E 002°09'0 0.0
2018-Feb-12 04:58N 41°20' E 002°09'0 0.0
2018-Feb-12 04:28N 41°20' E 002°09'0 0.0
2018-Feb-12 03:58N 41°20' E 002°09'0 0.0
2018-Feb-12 03:28N 41°20' E 002°09'0 0.0
2018-Feb-12 02:58N 41°20' E 002°09'0 0.0
2018-Feb-12 02:28N 41°20' E 002°09'0 0.0
2018-Feb-12 01:58N 41°20' E 002°09'0 0.0
2018-Feb-12 01:28N 41°20' E 002°09'0 0.0
2018-Feb-12 00:58N 41°20' E 002°09'0 0.0
2018-Feb-12 00:28N 41°20' E 002°09'1 2.5
2018-Feb-12 00:00N 41°21' E 002°10'4 7.5
2018-Feb-11 23:30N 41°17' E 002°12'3 5.7
2018-Feb-11 23:00N 41°15' E 002°14'3 6.5
2018-Feb-11 22:31N 41°16' E 002°19'713.7
2018-Feb-11 22:00N 41°19' E 002°27'611.8
2018-Feb-11 21:30N 41°21' E 002°34'0 0.3
2018-Feb-11 21:01N 41°21' E 002°34'0 0.9
2018-Feb-11 20:31N 41°21' E 002°34'1 1.0
2018-Feb-11 20:01N 41°20' E 002°33'0 1.0
2018-Feb-11 19:30N 41°20' E 002°33'1 1.1
2018-Feb-11 19:01N 41°19' E 002°32'1 1.4
2018-Feb-11 18:31N 41°19' E 002°32'1 1.6
2018-Feb-11 18:01N 41°18' E 002°32'1 1.6
2018-Feb-11 17:30N 41°17' E 002°31'1 1.6
2018-Feb-11 17:01N 41°16' E 002°31'1 1.5
2018-Feb-11 16:31N 41°16' E 002°30'1 1.5
2018-Feb-11 16:01N 41°15' E 002°30'1 1.5
2018-Feb-11 15:31N 41°14' E 002°30'1 1.4
2018-Feb-11 15:00N 41°14' E 002°29'1 1.4
2018-Feb-11 14:31N 41°13' E 002°29'1 1.3
2018-Feb-11 14:01N 41°13' E 002°28'1 1.2
2018-Feb-11 13:30N 41°12' E 002°28'1 1.1
2018-Feb-11 13:01N 41°12' E 002°28'1 1.1
2018-Feb-11 12:30N 41°11' E 002°27'0 1.0
2018-Feb-11 12:00N 41°11' E 002°27'0 0.7
2018-Feb-11 11:30N 41°10' E 002°26'0 0.7
2018-Feb-11 11:00N 41°11' E 002°26'0 0.6
2018-Feb-11 10:30N 41°11' E 002°26'0 0.7
2018-Feb-11 10:01N 41°11' E 002°26'1 1.1
2018-Feb-11 09:30N 41°12' E 002°26'1 2.5
2018-Feb-11 09:01N 41°12' E 002°28'510.9
2018-Feb-11 08:31N 41°09' E 002°34'1 1.9
2018-Feb-11 07:48N 41°08' E 002°35'0 0.7
2018-Feb-11 07:30N 41°09' E 002°35'0 0.7
2018-Feb-11 07:00N 41°09' E 002°35'0 0.6
2018-Feb-11 06:29N 41°09' E 002°34'0 0.6
2018-Feb-11 06:00N 41°09' E 002°34'0 0.8
2018-Feb-11 05:30N 41°08' E 002°34'  

Dump ship's entire track history